Time;durP1;ratioP1;P1;durP2;ratioP2;P2;SDS_P1;SDS_P2;PMS_P1;PMS_P2;Temp;Humidity;BMP_temperature;BMP_pressure;BME280_temperature;BME280_humidity;BME280_pressure;Samples;Min_cycle;Max_cycle;Signal;HPM_P1;HPM_P2
2023/12/05 00:01:49;;;;;;;3.88;3.47;;;;;;;;;;6280753;22;20499;-82
2023/12/05 00:04:17;;;;;;;3.50;3.20;;;;;;;;;;6281277;22;20256;-82
2023/12/05 00:06:44;;;;;;;4.72;3.95;;;;;;;;;;6280829;22;20274;-82
2023/12/05 00:09:14;;;;;;;5.10;4.07;;;;;;;;;;6281848;22;20276;-81
2023/12/05 00:11:41;;;;;;;4.45;4.05;;;;;;;;;;6281361;22;20176;-83
2023/12/05 00:14:09;;;;;;;3.80;3.50;;;;;;;;;;6280993;22;20227;-81
2023/12/05 00:16:36;;;;;;;3.40;3.10;;;;;;;;;;6281920;22;20256;-81
2023/12/05 00:19:04;;;;;;;4.88;4.47;;;;;;;;;;6281486;22;20586;-81
2023/12/05 00:21:31;;;;;;;4.25;3.85;;;;;;;;;;6281679;22;20685;-83
2023/12/05 00:23:58;;;;;;;4.07;3.67;;;;;;;;;;6281405;22;20263;-82
2023/12/05 00:26:28;;;;;;;3.97;3.60;;;;;;;;;;6281716;22;20212;-81
2023/12/05 00:28:55;;;;;;;5.32;4.43;;;;;;;;;;6281659;22;20714;-82
2023/12/05 00:31:22;;;;;;;5.13;4.13;;;;;;;;;;6281985;22;20195;-81
2023/12/05 00:33:50;;;;;;;4.30;3.90;;;;;;;;;;6281321;22;20212;-82
2023/12/05 00:36:18;;;;;;;4.20;3.70;;;;;;;;;;6282083;22;20172;-83
2023/12/05 00:38:45;;;;;;;4.05;3.67;;;;;;;;;;6280421;22;20279;-82
2023/12/05 00:41:13;;;;;;;4.75;4.20;;;;;;;;;;6280630;22;20200;-82
2023/12/05 00:43:42;;;;;;;4.82;4.35;;;;;;;;;;6281481;22;20232;-82
2023/12/05 00:46:10;;;;;;;3.60;3.30;;;;;;;;;;6280129;22;20255;-82
2023/12/05 00:48:37;;;;;;;5.07;4.57;;;;;;;;;;6281822;22;20708;-82
2023/12/05 00:51:06;;;;;;;4.63;3.67;;;;;;;;;;6281470;22;20263;-82
2023/12/05 00:53:33;;;;;;;4.22;3.83;;;;;;;;;;6280708;22;20177;-82
2023/12/05 00:56:01;;;;;;;4.68;3.83;;;;;;;;;;6281287;22;20206;-82
2023/12/05 00:58:28;;;;;;;4.05;3.67;;;;;;;;;;6281352;22;20283;-80
2023/12/05 01:00:57;;;;;;;3.95;3.55;;;;;;;;;;6281191;22;20562;-82
2023/12/05 01:03:24;;;;;;;4.28;3.90;;;;;;;;;;6280772;22;20255;-82
2023/12/05 01:05:52;;;;;;;6.60;5.65;;;;;;;;;;6281091;22;20219;-82
2023/12/05 01:08:19;;;;;;;7.63;4.22;;;;;;;;;;6280374;22;20227;-83
2023/12/05 01:10:47;;;;;;;6.30;4.65;;;;;;;;;;6280909;22;20710;-83
2023/12/05 01:13:14;;;;;;;5.85;4.47;;;;;;;;;;6281360;22;20228;-82
2023/12/05 01:15:42;;;;;;;5.65;4.57;;;;;;;;;;6281522;22;20260;-83
2023/12/05 01:18:12;;;;;;;4.75;4.28;;;;;;;;;;6280956;22;20247;-82
2023/12/05 01:20:39;;;;;;;4.53;4.13;;;;;;;;;;6280616;22;20173;-82
2023/12/05 01:23:07;;;;;;;6.05;4.25;;;;;;;;;;6281175;22;20259;-81
2023/12/05 01:25:34;;;;;;;6.60;4.30;;;;;;;;;;6281947;22;20203;-82
2023/12/05 01:28:02;;;;;;;5.78;4.75;;;;;;;;;;6283446;22;20251;-82
2023/12/05 01:30:30;;;;;;;5.82;4.65;;;;;;;;;;6283058;22;20176;-81
2023/12/05 01:32:57;;;;;;;4.47;3.95;;;;;;;;;;6283409;22;20256;-83
2023/12/05 01:35:26;;;;;;;4.72;4.32;;;;;;;;;;6283290;22;20260;-82
2023/12/05 01:37:53;;;;;;;5.22;4.63;;;;;;;;;;6282070;22;20256;-83
2023/12/05 01:40:21;;;;;;;5.20;4.72;;;;;;;;;;6283124;22;20211;-83
2023/12/05 01:42:48;;;;;;;5.53;4.90;;;;;;;;;;6283542;22;20176;-81
2023/12/05 01:45:16;;;;;;;5.93;4.85;;;;;;;;;;6283383;22;20260;-82
2023/12/05 01:47:43;;;;;;;5.13;4.63;;;;;;;;;;6282425;22;20669;-83
2023/12/05 01:50:14;;;;;;;5.22;4.72;;;;;;;;;;6281980;22;20247;-82
2023/12/05 01:52:47;;;;;;;4.95;4.47;;;;;;;;;;6282846;22;20634;-81
2023/12/05 01:55:15;;;;;;;5.15;4.65;;;;;;;;;;6283005;22;20551;-81
2023/12/05 01:57:42;;;;;;;5.57;4.80;;;;;;;;;;6282811;22;20207;-82
2023/12/05 02:00:11;;;;;;;5.63;5.13;;;;;;;;;;6282283;22;20271;-82
2023/12/05 02:02:39;;;;;;;4.57;4.03;;;;;;;;;;6283890;22;20282;-82
2023/12/05 02:05:08;;;;;;;6.22;4.43;;;;;;;;;;6283038;22;20540;-82
2023/12/05 02:07:36;;;;;;;5.65;4.88;;;;;;;;;;6282154;22;20267;-81
2023/12/05 02:10:07;;;;;;;6.13;5.07;;;;;;;;;;6283242;22;20196;-83
2023/12/05 02:12:35;;;;;;;4.57;4.18;;;;;;;;;;6283794;22;20208;-82
2023/12/05 02:15:03;;;;;;;4.93;4.45;;;;;;;;;;6282324;22;20252;-82
2023/12/05 02:17:37;;;;;;;5.38;4.57;;;;;;;;;;6283159;22;20232;-81
2023/12/05 02:20:11;;;;;;;5.47;4.82;;;;;;;;;;6283971;22;20223;-83
2023/12/05 02:23:25;;;;;;;4.45;4.03;;;;;;;;;;6282939;22;20263;-83
2023/12/05 02:26:10;;;;;;;4.70;4.07;;;;;;;;;;6254973;22;20256;-82
2023/12/05 02:28:39;;;;;;;5.38;4.88;;;;;;;;;;6281851;22;20196;-82
2023/12/05 02:31:07;;;;;;;5.90;4.88;;;;;;;;;;6282466;22;20207;-82
2023/12/05 02:33:35;;;;;;;5.22;4.18;;;;;;;;;;6282793;22;20172;-82
2023/12/05 02:36:13;;;;;;;7.50;6.65;;;;;;;;;;6282102;22;20207;-81
2023/12/05 02:38:46;;;;;;;5.40;4.20;;;;;;;;;;6282288;22;20272;-83
2023/12/05 02:41:19;;;;;;;5.15;4.65;;;;;;;;;;6282501;22;20188;-83
2023/12/05 02:43:53;;;;;;;5.20;4.38;;;;;;;;;;6283330;22;20590;-82
2023/12/05 02:46:21;;;;;;;5.85;4.38;;;;;;;;;;6282197;22;20199;-82
2023/12/05 02:48:50;;;;;;;4.97;4.30;;;;;;;;;;6282237;22;20224;-81
2023/12/05 02:51:18;;;;;;;6.82;4.97;;;;;;;;;;6281505;22;20251;-81
2023/12/05 02:53:45;;;;;;;8.05;5.43;;;;;;;;;;6282356;22;20267;-82
2023/12/05 02:56:13;;;;;;;6.95;5.40;;;;;;;;;;6281874;22;20251;-81
2023/12/05 02:58:40;;;;;;;7.53;5.13;;;;;;;;;;6282439;22;20251;-81
2023/12/05 03:01:09;;;;;;;6.28;5.65;;;;;;;;;;6282985;22;20577;-82
2023/12/05 03:03:37;;;;;;;5.72;4.90;;;;;;;;;;6281922;22;20210;-81
2023/12/05 03:06:05;;;;;;;7.25;5.80;;;;;;;;;;6281701;22;20228;-82
2023/12/05 03:08:32;;;;;;;6.82;5.80;;;;;;;;;;6283656;22;20574;-82
2023/12/05 03:11:00;;;;;;;7.43;6.00;;;;;;;;;;6282029;22;20211;-82
2023/12/05 03:13:27;;;;;;;5.93;5.32;;;;;;;;;;6282463;22;20566;-81
2023/12/05 03:15:54;;;;;;;7.10;6.03;;;;;;;;;;6282203;22;20251;-82
2023/12/05 03:18:24;;;;;;;7.32;6.35;;;;;;;;;;6282567;22;20567;-81
2023/12/05 03:20:52;;;;;;;6.15;5.55;;;;;;;;;;6281429;22;20492;-82
2023/12/05 03:23:20;;;;;;;7.07;5.70;;;;;;;;;;6281773;22;20259;-81
2023/12/05 03:25:47;;;;;;;6.32;5.53;;;;;;;;;;6282851;22;20222;-81
2023/12/05 03:28:15;;;;;;;7.30;5.75;;;;;;;;;;6281836;22;20207;-83
2023/12/05 03:30:42;;;;;;;6.20;5.47;;;;;;;;;;6282328;22;20200;-83
2023/12/05 03:33:09;;;;;;;5.82;4.60;;;;;;;;;;6282736;22;20248;-81
2023/12/05 03:35:38;;;;;;;5.53;4.95;;;;;;;;;;6281845;22;20183;-82
2023/12/05 03:38:06;;;;;;;7.97;6.05;;;;;;;;;;6282117;22;20192;-82
2023/12/05 03:40:33;;;;;;;5.15;4.65;;;;;;;;;;6282591;22;20255;-82
2023/12/05 03:43:00;;;;;;;6.18;5.10;;;;;;;;;;6282473;22;20232;-82
2023/12/05 03:45:28;;;;;;;5.72;4.88;;;;;;;;;;6282063;22;20207;-82
2023/12/05 03:47:55;;;;;;;5.75;4.95;;;;;;;;;;6281614;22;20247;-83
2023/12/05 03:50:23;;;;;;;6.38;5.00;;;;;;;;;;6282119;22;20260;-81
2023/12/05 03:52:52;;;;;;;8.25;5.78;;;;;;;;;;6282452;22;20200;-82
2023/12/05 03:55:19;;;;;;;6.15;4.90;;;;;;;;;;6282423;22;20211;-81
2023/12/05 03:57:47;;;;;;;6.57;5.68;;;;;;;;;;6282214;22;20251;-81
2023/12/05 04:00:16;;;;;;;6.45;5.22;;;;;;;;;;6281533;22;20251;-81
2023/12/05 04:02:43;;;;;;;6.15;5.00;;;;;;;;;;6282199;22;20232;-80
2023/12/05 04:05:11;;;;;;;5.70;5.15;;;;;;;;;;6282471;22;20203;-82
2023/12/05 04:07:38;;;;;;;5.68;4.68;;;;;;;;;;6282185;22;20672;-83
2023/12/05 04:10:09;;;;;;;5.00;4.50;;;;;;;;;;6281601;22;20559;-82
2023/12/05 04:12:39;;;;;;;4.90;4.47;;;;;;;;;;6282610;22;20207;-83
2023/12/05 04:15:08;;;;;;;5.68;5.03;;;;;;;;;;6281942;22;20180;-82
2023/12/05 04:17:35;;;;;;;6.60;4.88;;;;;;;;;;6282422;22;20191;-83
2023/12/05 04:20:05;;;;;;;4.53;4.03;;;;;;;;;;6281307;22;20227;-82
2023/12/05 04:22:33;;;;;;;5.80;5.18;;;;;;;;;;6282040;22;20184;-83
2023/12/05 04:25:00;;;;;;;5.47;4.60;;;;;;;;;;6282229;22;20227;-82
2023/12/05 04:27:29;;;;;;;6.20;4.97;;;;;;;;;;6281547;22;20279;-83
2023/12/05 04:29:56;;;;;;;6.07;4.88;;;;;;;;;;6282585;22;20223;-81
2023/12/05 04:32:24;;;;;;;4.95;4.45;;;;;;;;;;6281732;22;20183;-83
2023/12/05 04:34:51;;;;;;;4.65;4.03;;;;;;;;;;6282275;22;20200;-83
2023/12/05 04:37:19;;;;;;;4.72;3.90;;;;;;;;;;6282933;22;20176;-83
2023/12/05 04:39:46;;;;;;;4.03;3.63;;;;;;;;;;6282421;22;20283;-81
2023/12/05 04:42:14;;;;;;;5.57;5.05;;;;;;;;;;6281901;22;20252;-82
2023/12/05 04:44:42;;;;;;;4.60;3.75;;;;;;;;;;6280438;22;20195;-82
2023/12/05 04:47:10;;;;;;;4.28;3.88;;;;;;;;;;6281042;22;20255;-81
2023/12/05 04:49:38;;;;;;;4.47;4.15;;;;;;;;;;6280955;22;20200;-83
2023/12/05 04:52:05;;;;;;;4.47;4.07;;;;;;;;;;6282213;22;20195;-83
2023/12/05 04:54:33;;;;;;;5.80;4.03;;;;;;;;;;6282322;22;20200;-83
2023/12/05 04:57:00;;;;;;;5.22;4.30;;;;;;;;;;6282008;22;20256;-80
2023/12/05 04:59:28;;;;;;;4.20;3.80;;;;;;;;;;6281756;22;20270;-82
2023/12/05 05:01:56;;;;;;;6.32;5.72;;;;;;;;;;6284233;22;20210;-81
2023/12/05 05:04:24;;;;;;;5.07;4.57;;;;;;;;;;6284205;22;20697;-82
2023/12/05 05:06:51;;;;;;;5.93;5.35;;;;;;;;;;6283737;22;20255;-81
2023/12/05 05:09:19;;;;;;;5.80;5.20;;;;;;;;;;6284368;22;20665;-82
2023/12/05 05:11:46;;;;;;;5.22;4.72;;;;;;;;;;6283224;22;20224;-81
2023/12/05 05:14:13;;;;;;;8.43;5.47;;;;;;;;;;6283440;22;20263;-82
2023/12/05 05:16:41;;;;;;;5.40;4.88;;;;;;;;;;6283988;22;20206;-82
2023/12/05 05:19:10;;;;;;;5.47;4.93;;;;;;;;;;6284768;22;20199;-82
2023/12/05 05:21:37;;;;;;;6.60;5.10;;;;;;;;;;6284023;22;20251;-82
2023/12/05 05:24:05;;;;;;;6.00;5.25;;;;;;;;;;6283341;22;20729;-83
2023/12/05 05:26:32;;;;;;;5.38;4.88;;;;;;;;;;6284201;22;20204;-82
2023/12/05 05:29:00;;;;;;;5.70;5.13;;;;;;;;;;6283640;22;20279;-82
2023/12/05 05:31:27;;;;;;;4.45;4.05;;;;;;;;;;6283114;22;20207;-83
2023/12/05 05:33:55;;;;;;;4.32;3.92;;;;;;;;;;6284295;22;20248;-83
2023/12/05 05:36:24;;;;;;;5.10;4.55;;;;;;;;;;6284294;22;20452;-82
2023/12/05 05:38:51;;;;;;;6.28;5.68;;;;;;;;;;6283461;22;20245;-82
2023/12/05 05:41:19;;;;;;;4.63;4.10;;;;;;;;;;6283848;22;20176;-83
2023/12/05 05:43:46;;;;;;;4.43;4.03;;;;;;;;;;6283666;22;20202;-82
2023/12/05 05:46:14;;;;;;;5.03;4.63;;;;;;;;;;6283249;22;20208;-82
2023/12/05 05:48:41;;;;;;;4.85;4.38;;;;;;;;;;6283333;22;20200;-82
2023/12/05 05:51:09;;;;;;;5.10;4.60;;;;;;;;;;6283259;22;20227;-83
2023/12/05 05:53:38;;;;;;;5.43;4.63;;;;;;;;;;6283501;22;20211;-82
2023/12/05 05:56:07;;;;;;;5.00;4.25;;;;;;;;;;6285039;22;20249;-82
2023/12/05 05:58:34;;;;;;;4.78;4.30;;;;;;;;;;6282952;22;20276;-81
2023/12/05 06:01:02;;;;;;;5.22;4.45;;;;;;;;;;6282746;22;20183;-82
2023/12/05 06:03:31;;;;;;;4.60;4.20;;;;;;;;;;6283087;22;20203;-81
2023/12/05 06:05:59;;;;;;;5.57;4.75;;;;;;;;;;6283710;22;20659;-82
2023/12/05 06:08:27;;;;;;;4.35;3.95;;;;;;;;;;6283013;22;20208;-82
2023/12/05 06:10:55;;;;;;;5.57;4.65;;;;;;;;;;6282441;22;20207;-80
2023/12/05 06:13:23;;;;;;;5.50;4.65;;;;;;;;;;6280975;22;20232;-80
2023/12/05 06:15:50;;;;;;;5.25;4.68;;;;;;;;;;6281800;22;20234;-81
2023/12/05 06:18:18;;;;;;;5.30;4.72;;;;;;;;;;6281310;22;20286;-81
2023/12/05 06:20:46;;;;;;;3.72;3.42;;;;;;;;;;6281013;22;20183;-81
2023/12/05 06:23:14;;;;;;;5.55;4.07;;;;;;;;;;6281125;22;20184;-81
2023/12/05 06:25:41;;;;;;;3.63;3.30;;;;;;;;;;6283698;22;20507;-81
2023/12/05 06:28:10;;;;;;;4.07;3.75;;;;;;;;;;6282937;22;20203;-80
2023/12/05 06:30:37;;;;;;;4.05;3.45;;;;;;;;;;6282238;22;20275;-81
2023/12/05 06:33:05;;;;;;;5.30;4.78;;;;;;;;;;6282352;22;20207;-81
2023/12/05 06:35:32;;;;;;;4.50;4.10;;;;;;;;;;6282307;22;20199;-79
2023/12/05 06:38:00;;;;;;;3.28;2.97;;;;;;;;;;6282339;22;20324;-80
2023/12/05 06:40:27;;;;;;;2.83;2.63;;;;;;;;;;6282767;22;20199;-80
2023/12/05 06:42:55;;;;;;;3.10;2.80;;;;;;;;;;6282999;22;20236;-80
2023/12/05 06:45:23;;;;;;;2.70;2.50;;;;;;;;;;6282548;22;20231;-80
2023/12/05 06:47:51;;;;;;;3.78;3.38;;;;;;;;;;6281870;22;20203;-80
2023/12/05 06:50:18;;;;;;;3.13;2.92;;;;;;;;;;6282713;22;20231;-81
2023/12/05 06:52:46;;;;;;;3.55;3.25;;;;;;;;;;6283500;22;20858;-81
2023/12/05 06:55:13;;;;;;;3.53;3.22;;;;;;;;;;6283374;22;20233;-82
2023/12/05 06:57:41;;;;;;;3.95;3.55;;;;;;;;;;6283015;22;20522;-80
2023/12/05 07:00:11;;;;;;;3.60;3.30;;;;;;;;;;6283049;22;20240;-81
2023/12/05 07:02:39;;;;;;;4.20;3.88;;;;;;;;;;6283770;22;20176;-80
2023/12/05 07:05:08;;;;;;;3.65;2.88;;;;;;;;;;6283788;22;20252;-80
2023/12/05 07:07:36;;;;;;;3.90;2.85;;;;;;;;;;6283696;22;20566;-80
2023/12/05 07:10:05;;;;;;;3.58;3.28;;;;;;;;;;6282564;22;20596;-79
2023/12/05 07:12:33;;;;;;;3.53;3.25;;;;;;;;;;6282008;22;20700;-81
2023/12/05 07:15:01;;;;;;;3.75;3.40;;;;;;;;;;6282810;22;20247;-81
2023/12/05 07:17:28;;;;;;;3.38;3.08;;;;;;;;;;6283764;22;20666;-81
2023/12/05 07:19:57;;;;;;;3.28;2.97;;;;;;;;;;6283018;22;20231;-81
2023/12/05 07:22:24;;;;;;;3.10;2.90;;;;;;;;;;6283305;22;20176;-81
2023/12/05 07:24:52;;;;;;;3.40;2.85;;;;;;;;;;6283157;22;20189;-81
2023/12/05 07:27:19;;;;;;;3.33;3.03;;;;;;;;;;6283576;22;20608;-80
2023/12/05 07:29:47;;;;;;;3.17;2.97;;;;;;;;;;6281800;22;20239;-81
2023/12/05 07:32:14;;;;;;;4.47;4.03;;;;;;;;;;6282255;22;20226;-81
2023/12/05 07:34:44;;;;;;;5.10;4.53;;;;;;;;;;6281808;22;20509;-82
2023/12/05 07:37:12;;;;;;;4.20;3.88;;;;;;;;;;6281704;22;20633;-81
2023/12/05 07:39:40;;;;;;;5.28;4.78;;;;;;;;;;6281118;22;20235;-82
2023/12/05 07:42:07;;;;;;;3.63;3.33;;;;;;;;;;6281652;22;20252;-82
2023/12/05 07:44:35;;;;;;;4.82;4.32;;;;;;;;;;6281000;22;20203;-81
2023/12/05 07:47:03;;;;;;;5.30;4.00;;;;;;;;;;6281178;22;20179;-81
2023/12/05 07:49:30;;;;;;;3.35;3.05;;;;;;;;;;6281539;22;20200;-82
2023/12/05 07:51:58;;;;;;;3.78;3.47;;;;;;;;;;6281079;22;20183;-81
2023/12/05 07:54:26;;;;;;;3.67;3.35;;;;;;;;;;6280917;22;20177;-81
2023/12/05 07:56:54;;;;;;;2.90;2.70;;;;;;;;;;6281776;22;20224;-82
2023/12/05 07:59:21;;;;;;;4.15;3.75;;;;;;;;;;6280689;22;20203;-82
2023/12/05 08:01:49;;;;;;;4.25;3.38;;;;;;;;;;6281793;22;20247;-82
2023/12/05 08:04:16;;;;;;;3.70;3.30;;;;;;;;;;6280612;22;20203;-82
2023/12/05 08:06:44;;;;;;;3.97;3.67;;;;;;;;;;6280734;22;20231;-81
2023/12/05 08:09:11;;;;;;;3.97;3.67;;;;;;;;;;6280762;22;20192;-83
2023/12/05 08:11:40;;;;;;;5.15;4.57;;;;;;;;;;6280346;22;20259;-83
2023/12/05 08:14:07;;;;;;;5.72;4.95;;;;;;;;;;6280519;22;20264;-83
2023/12/05 08:16:35;;;;;;;5.00;4.43;;;;;;;;;;6280128;22;20179;-83
2023/12/05 08:19:02;;;;;;;5.28;4.45;;;;;;;;;;6281009;22;20214;-82
2023/12/05 08:21:30;;;;;;;5.22;4.55;;;;;;;;;;6280888;22;20172;-83
2023/12/05 08:23:58;;;;;;;6.72;5.07;;;;;;;;;;6280406;22;20184;-83
2023/12/05 08:26:25;;;;;;;5.15;4.63;;;;;;;;;;6280668;22;20208;-83
2023/12/05 08:28:54;;;;;;;4.25;3.92;;;;;;;;;;6280705;22;20677;-82
2023/12/05 08:31:21;;;;;;;5.35;4.85;;;;;;;;;;6279596;22;20272;-82
2023/12/05 08:33:49;;;;;;;5.82;4.75;;;;;;;;;;6280499;22;20256;-83
2023/12/05 08:36:16;;;;;;;4.63;4.22;;;;;;;;;;6280163;22;20251;-82
2023/12/05 08:38:44;;;;;;;4.53;4.13;;;;;;;;;;6279622;22;20267;-83
2023/12/05 08:41:19;;;;;;;4.90;3.50;;;;;;;;;;6280052;22;20543;-83
2023/12/05 08:43:46;;;;;;;5.55;4.50;;;;;;;;;;6280753;22;20608;-83
2023/12/05 08:46:15;;;;;;;6.28;5.32;;;;;;;;;;6280286;22;20204;-83
2023/12/05 08:48:43;;;;;;;5.22;4.13;;;;;;;;;;6280138;22;20267;-83
2023/12/05 08:51:10;;;;;;;5.68;4.82;;;;;;;;;;6279281;22;20196;-83
2023/12/05 08:53:38;;;;;;;4.43;4.03;;;;;;;;;;6280111;22;20207;-82
2023/12/05 08:56:07;;;;;;;4.97;4.50;;;;;;;;;;6281130;22;20177;-82
2023/12/05 08:58:34;;;;;;;4.22;3.92;;;;;;;;;;6279436;22;20227;-81
2023/12/05 09:01:02;;;;;;;5.20;4.38;;;;;;;;;;6279460;22;20210;-82
2023/12/05 09:03:31;;;;;;;5.63;5.13;;;;;;;;;;6279448;22;20181;-82
2023/12/05 09:05:59;;;;;;;4.70;4.30;;;;;;;;;;6280079;22;20247;-82
2023/12/05 09:08:26;;;;;;;6.43;4.40;;;;;;;;;;6279965;22;20275;-82
2023/12/05 09:10:57;;;;;;;5.22;4.72;;;;;;;;;;6279817;22;20256;-82
2023/12/05 09:13:25;;;;;;;4.70;4.28;;;;;;;;;;6280382;22;20214;-82
2023/12/05 09:15:52;;;;;;;5.25;4.75;;;;;;;;;;6281236;22;20177;-82
2023/12/05 09:18:20;;;;;;;6.03;4.88;;;;;;;;;;6280108;22;20270;-82
2023/12/05 09:20:49;;;;;;;5.40;4.65;;;;;;;;;;6280801;22;20169;-82
2023/12/05 09:23:16;;;;;;;4.28;3.88;;;;;;;;;;6280053;22;20208;-83
2023/12/05 09:25:44;;;;;;;4.85;4.38;;;;;;;;;;6280500;22;20183;-81
2023/12/05 09:28:11;;;;;;;4.40;3.95;;;;;;;;;;6281180;22;20582;-81
2023/12/05 09:30:39;;;;;;;4.65;4.07;;;;;;;;;;6280401;22;20278;-82
2023/12/05 09:33:06;;;;;;;4.88;4.47;;;;;;;;;;6281407;22;20245;-83
2023/12/05 09:35:34;;;;;;;4.32;3.92;;;;;;;;;;6280903;22;20208;-84
2023/12/05 09:38:04;;;;;;;9.80;4.18;;;;;;;;;;6281234;22;20180;-81
2023/12/05 09:40:31;;;;;;;4.40;4.00;;;;;;;;;;6280214;22;20594;-83
2023/12/05 09:43:02;;;;;;;4.15;3.85;;;;;;;;;;6280922;22;20177;-83
2023/12/05 09:45:33;;;;;;;4.35;4.00;;;;;;;;;;6281519;22;20161;-84
2023/12/05 09:48:05;;;;;;;3.85;3.55;;;;;;;;;;6283644;22;20160;-83
2023/12/05 09:50:33;;;;;;;3.67;3.38;;;;;;;;;;6283010;22;20177;-83
2023/12/05 09:53:02;;;;;;;3.90;3.60;;;;;;;;;;6283361;22;20227;-83
2023/12/05 09:55:30;;;;;;;4.43;4.03;;;;;;;;;;6283282;22;20251;-83
2023/12/05 09:57:58;;;;;;;4.13;3.40;;;;;;;;;;6282613;22;20192;-82
2023/12/05 10:00:26;;;;;;;5.03;4.63;;;;;;;;;;6283696;22;20247;-83
2023/12/05 10:02:55;;;;;;;3.70;3.40;;;;;;;;;;6282941;22;20180;-83
2023/12/05 10:05:22;;;;;;;4.40;4.00;;;;;;;;;;6283325;22;20177;-83
2023/12/05 10:07:50;;;;;;;4.55;4.15;;;;;;;;;;6284378;22;20176;-83
2023/12/05 10:10:20;;;;;;;4.50;3.97;;;;;;;;;;6283400;22;20247;-82
2023/12/05 10:12:48;;;;;;;4.60;4.20;;;;;;;;;;6283823;22;20838;-82
2023/12/05 10:15:18;;;;;;;4.28;3.88;;;;;;;;;;6283686;22;20621;-82
2023/12/05 10:17:47;;;;;;;4.65;4.25;;;;;;;;;;6284029;22;20179;-82
2023/12/05 10:20:14;;;;;;;6.55;4.63;;;;;;;;;;6283250;22;20228;-81
2023/12/05 10:22:42;;;;;;;5.30;4.53;;;;;;;;;;6284001;22;20633;-82
2023/12/05 10:25:10;;;;;;;5.32;4.85;;;;;;;;;;6284237;22;20251;-82
2023/12/05 10:27:39;;;;;;;5.25;4.72;;;;;;;;;;6284813;22;20208;-82
2023/12/05 10:30:08;;;;;;;5.10;4.60;;;;;;;;;;6283693;22;20224;-81
2023/12/05 10:32:37;;;;;;;6.47;5.82;;;;;;;;;;6283323;22;20276;-82
2023/12/05 10:35:05;;;;;;;5.57;4.43;;;;;;;;;;6285164;22;20226;-82
2023/12/05 10:37:32;;;;;;;6.68;4.53;;;;;;;;;;6284406;22;20263;-82
2023/12/05 10:40:01;;;;;;;6.35;5.65;;;;;;;;;;6284749;22;20231;-82
2023/12/05 10:42:30;;;;;;;6.40;5.47;;;;;;;;;;6284640;22;20173;-82
2023/12/05 10:44:58;;;;;;;6.38;5.78;;;;;;;;;;6285122;22;20685;-82
2023/12/05 10:47:26;;;;;;;5.78;5.22;;;;;;;;;;6284816;22;20251;-82
2023/12/05 10:49:54;;;;;;;5.55;4.80;;;;;;;;;;6284808;22;20196;-82
2023/12/05 10:52:21;;;;;;;5.53;5.03;;;;;;;;;;6284596;22;20189;-82
2023/12/05 10:54:56;;;;;;;5.15;4.65;;;;;;;;;;6284679;22;20516;-81
2023/12/05 10:57:32;;;;;;;5.53;5.05;;;;;;;;;;6283954;22;20164;-82
2023/12/05 11:00:03;;;;;;;7.10;6.22;;;;;;;;;;6283691;22;20325;-81
2023/12/05 11:02:30;;;;;;;7.68;5.53;;;;;;;;;;6283806;22;20187;-81
2023/12/05 11:04:58;;;;;;;7.40;5.97;;;;;;;;;;6282806;22;20172;-80
2023/12/05 11:07:25;;;;;;;6.50;5.47;;;;;;;;;;6282935;22;20254;-82
2023/12/05 11:09:53;;;;;;;5.97;5.38;;;;;;;;;;6282671;22;20287;-81
2023/12/05 11:12:21;;;;;;;5.50;5.00;;;;;;;;;;6283133;22;20720;-81
2023/12/05 11:14:51;;;;;;;7.10;5.97;;;;;;;;;;6283119;22;20215;-81
2023/12/05 11:17:29;;;;;;;6.53;5.93;;;;;;;;;;6283260;22;20183;-81
2023/12/05 11:20:14;;;;;;;5.05;4.28;;;;;;;;;;6283121;22;20268;-80
2023/12/05 11:22:52;;;;;;;5.25;4.75;;;;;;;;;;6283224;22;20199;-81
2023/12/05 11:25:39;;;;;;;7.18;5.45;;;;;;;;;;6282930;22;20160;-81
2023/12/05 11:28:24;;;;;;;5.22;4.72;;;;;;;;;;6282474;22;20188;-80
2023/12/05 11:31:03;;;;;;;5.93;5.32;;;;;;;;;;6281648;22;20160;-80
2023/12/05 11:33:52;;;;;;;5.45;4.68;;;;;;;;;;6281900;22;20177;-79
2023/12/05 11:36:29;;;;;;;5.30;4.80;;;;;;;;;;6281384;22;20231;-81
2023/12/05 11:38:57;;;;;;;5.00;4.50;;;;;;;;;;6282745;22;20279;-80
2023/12/05 11:41:27;;;;;;;5.47;4.97;;;;;;;;;;6282854;22;20562;-81
2023/12/05 11:44:18;;;;;;;5.28;4.45;;;;;;;;;;6282699;22;20187;-81
2023/12/05 11:46:47;;;;;;;5.82;5.32;;;;;;;;;;6282704;22;20503;-80
2023/12/05 11:49:29;;;;;;;5.05;4.63;;;;;;;;;;6281499;22;20201;-80
2023/12/05 11:52:10;;;;;;;4.82;4.43;;;;;;;;;;6281815;22;20203;-81
2023/12/05 11:54:39;;;;;;;4.65;4.25;;;;;;;;;;6281287;22;20157;-81
2023/12/05 11:57:14;;;;;;;3.70;3.40;;;;;;;;;;6281455;22;20206;-81
2023/12/05 11:59:43;;;;;;;4.63;4.03;;;;;;;;;;6281751;22;20688;-80
2023/12/05 12:02:14;;;;;;;4.70;3.55;;;;;;;;;;6281552;22;20236;-81
2023/12/05 12:04:42;;;;;;;4.88;3.90;;;;;;;;;;6281679;22;20498;-81
2023/12/05 12:07:10;;;;;;;5.97;4.03;;;;;;;;;;6281568;22;20574;-80
2023/12/05 12:09:39;;;;;;;6.22;3.60;;;;;;;;;;6281160;22;20216;-78
2023/12/05 12:12:07;;;;;;;4.05;3.65;;;;;;;;;;6281070;22;20196;-78
2023/12/05 12:14:37;;;;;;;4.85;4.05;;;;;;;;;;6280597;22;20736;-78
2023/12/05 12:17:11;;;;;;;3.78;3.38;;;;;;;;;;6281469;22;20183;-79
2023/12/05 12:19:39;;;;;;;4.57;3.50;;;;;;;;;;6280818;22;20667;-79
2023/12/05 12:22:10;;;;;;;2.97;2.70;;;;;;;;;;6280097;22;20626;-78
2023/12/05 12:24:37;;;;;;;3.58;3.35;;;;;;;;;;6280379;22;20172;-79
2023/12/05 12:27:07;;;;;;;4.03;3.63;;;;;;;;;;6281115;22;20518;-80
2023/12/05 12:29:35;;;;;;;3.22;2.92;;;;;;;;;;6280529;22;20200;-80
2023/12/05 12:32:09;;;;;;;3.50;3.20;;;;;;;;;;6280409;22;20259;-80
2023/12/05 12:34:37;;;;;;;3.13;2.78;;;;;;;;;;6280308;22;20161;-81
2023/12/05 12:37:05;;;;;;;3.53;3.22;;;;;;;;;;6280907;22;20177;-80
2023/12/05 12:39:36;;;;;;;3.85;3.45;;;;;;;;;;6280968;22;20200;-81
2023/12/05 12:42:04;;;;;;;3.60;3.30;;;;;;;;;;6281011;22;20259;-79
2023/12/05 12:44:32;;;;;;;3.13;2.92;;;;;;;;;;6280844;22;20293;-81
2023/12/05 12:46:58;;;;;;;3.15;2.85;;;;;;;;;;6281397;22;20696;-79
2023/12/05 12:49:27;;;;;;;3.22;3.03;;;;;;;;;;6280462;22;20534;-79
2023/12/05 12:51:55;;;;;;;3.53;3.20;;;;;;;;;;6280517;22;20234;-80
2023/12/05 12:54:23;;;;;;;3.22;3.00;;;;;;;;;;6280868;22;20196;-81
2023/12/05 12:56:53;;;;;;;3.13;2.88;;;;;;;;;;6280652;22;20196;-77
2023/12/05 12:59:20;;;;;;;3.97;3.55;;;;;;;;;;6280862;22;20192;-81
2023/12/05 13:01:49;;;;;;;2.78;2.58;;;;;;;;;;6281137;22;20259;-81
2023/12/05 13:04:16;;;;;;;2.67;2.47;;;;;;;;;;6281604;22;20168;-79
2023/12/05 13:06:46;;;;;;;3.47;3.17;;;;;;;;;;6281242;22;20254;-80
2023/12/05 13:09:17;;;;;;;3.50;3.20;;;;;;;;;;6281208;22;20513;-80
2023/12/05 13:11:45;;;;;;;3.50;2.78;;;;;;;;;;6281362;22;20185;-81
2023/12/05 13:14:16;;;;;;;3.67;3.38;;;;;;;;;;6281216;22;20222;-80
2023/12/05 13:16:45;;;;;;;3.15;2.85;;;;;;;;;;6280640;22;20157;-80
2023/12/05 13:19:23;;;;;;;3.42;3.13;;;;;;;;;;6280789;22;20596;-80
2023/12/05 13:21:51;;;;;;;3.90;3.45;;;;;;;;;;6281935;22;20168;-80
2023/12/05 13:24:19;;;;;;;3.83;3.08;;;;;;;;;;6282641;22;20263;-80
2023/12/05 13:26:47;;;;;;;2.80;2.60;;;;;;;;;;6282890;22;20195;-80
2023/12/05 13:29:16;;;;;;;4.57;3.88;;;;;;;;;;6282751;22;20362;-79
2023/12/05 13:31:43;;;;;;;3.30;2.83;;;;;;;;;;6282535;22;20228;-80
2023/12/05 13:34:11;;;;;;;3.17;2.88;;;;;;;;;;6282405;22;20231;-80
2023/12/05 13:36:38;;;;;;;3.35;3.15;;;;;;;;;;6281989;22;20211;-80
2023/12/05 13:39:08;;;;;;;2.80;2.60;;;;;;;;;;6282726;22;20252;-80
2023/12/05 13:41:35;;;;;;;3.08;2.70;;;;;;;;;;6282393;22;20176;-79
2023/12/05 13:44:03;;;;;;;2.85;2.63;;;;;;;;;;6282822;22;20215;-79
2023/12/05 13:46:32;;;;;;;2.47;2.28;;;;;;;;;;6282214;22;20238;-80
2023/12/05 13:49:04;;;;;;;3.47;3.17;;;;;;;;;;6282669;22;20665;-79
2023/12/05 13:51:31;;;;;;;3.20;2.78;;;;;;;;;;6281622;22;20168;-79
2023/12/05 13:54:00;;;;;;;2.70;2.50;;;;;;;;;;6282255;22;20199;-79
2023/12/05 13:56:27;;;;;;;3.03;2.72;;;;;;;;;;6283252;22;20622;-80
2023/12/05 13:58:55;;;;;;;2.58;2.35;;;;;;;;;;6282367;22;20230;-80
2023/12/05 14:01:23;;;;;;;2.33;2.10;;;;;;;;;;6281911;22;20200;-79
2023/12/05 14:03:51;;;;;;;2.60;2.38;;;;;;;;;;6283164;22;20247;-79
2023/12/05 14:06:19;;;;;;;2.58;2.40;;;;;;;;;;6281995;22;20255;-79
2023/12/05 14:08:47;;;;;;;1.67;1.58;;;;;;;;;;6282087;22;20224;-79
2023/12/05 14:11:14;;;;;;;2.10;2.00;;;;;;;;;;6282024;22;20619;-78
2023/12/05 14:13:42;;;;;;;2.20;2.00;;;;;;;;;;6281933;22;20275;-79
2023/12/05 14:16:10;;;;;;;2.60;2.40;;;;;;;;;;6281660;22;20709;-78
2023/12/05 14:18:37;;;;;;;2.28;2.08;;;;;;;;;;6282356;22;20263;-79
2023/12/05 14:21:06;;;;;;;2.30;2.03;;;;;;;;;;6282233;22;20199;-80
2023/12/05 14:23:34;;;;;;;2.58;2.38;;;;;;;;;;6281314;22;20208;-80
2023/12/05 14:26:01;;;;;;;1.77;1.67;;;;;;;;;;6282091;22;20653;-79
2023/12/05 14:28:29;;;;;;;1.75;1.65;;;;;;;;;;6282259;22;20220;-79
2023/12/05 14:30:58;;;;;;;1.95;1.85;;;;;;;;;;6281855;22;20187;-80
2023/12/05 14:33:25;;;;;;;3.72;3.28;;;;;;;;;;6282796;22;20192;-80
2023/12/05 14:35:52;;;;;;;3.50;2.10;;;;;;;;;;6281696;22;20233;-79
2023/12/05 14:38:22;;;;;;;2.53;2.33;;;;;;;;;;6281564;22;20276;-79
2023/12/05 14:40:50;;;;;;;2.65;2.45;;;;;;;;;;6282445;22;20196;-80
2023/12/05 14:43:17;;;;;;;1.77;1.65;;;;;;;;;;6282503;22;20207;-79
2023/12/05 14:45:45;;;;;;;1.98;1.83;;;;;;;;;;6283000;22;20176;-79
2023/12/05 14:48:13;;;;;;;2.28;2.05;;;;;;;;;;6282701;22;20244;-79
2023/12/05 14:50:41;;;;;;;2.28;2.08;;;;;;;;;;6282888;22;20176;-79
2023/12/05 14:53:11;;;;;;;2.25;2.15;;;;;;;;;;6282063;22;20259;-79